createdAt,value
2018-05-29T00:02:30.154Z,85.34
2018-05-29T00:05:33.468Z,85.53
2018-05-29T00:08:37.558Z,85.32
2018-05-29T00:11:40.861Z,85.27
2018-05-29T00:14:44.187Z,85.34
2018-05-29T00:17:47.502Z,85.70
2018-05-29T00:20:50.838Z,86.35
2018-05-29T00:23:54.149Z,86.73
2018-05-29T00:26:57.466Z,87.18
2018-05-29T00:30:01.538Z,86.42
2018-05-29T00:33:04.877Z,85.37
2018-05-29T00:36:08.949Z,85.78
2018-05-29T00:39:12.267Z,85.93
2018-05-29T00:42:15.577Z,86.19
2018-05-29T00:45:19.662Z,85.97
2018-05-29T00:48:22.977Z,86.55
2018-05-29T00:51:26.300Z,86.92
2018-05-29T00:54:29.609Z,87.28
2018-05-29T00:57:33.706Z,87.07
2018-05-29T01:00:37.019Z,87.08
2018-05-29T01:03:41.108Z,87.75
2018-05-29T01:06:45.186Z,87.96
2018-05-29T01:09:48.505Z,87.86
2018-05-29T01:12:51.833Z,88.61
2018-05-29T01:15:55.137Z,88.46
2018-05-29T01:18:58.462Z,88.38
2018-05-29T01:22:01.766Z,88.53
2018-05-29T01:25:05.090Z,88.89
2018-05-29T01:28:08.393Z,89.08
2018-05-29T01:31:12.482Z,89.19
2018-05-29T01:34:15.794Z,89.27
2018-05-29T01:37:19.110Z,89.41
2018-05-29T01:40:23.195Z,89.49
2018-05-29T01:43:26.681Z,89.80
2018-05-29T01:46:29.993Z,89.93
2018-05-29T01:49:33.314Z,90.13
2018-05-29T01:52:37.395Z,90.32
2018-05-29T01:55:40.714Z,90.35
2018-05-29T01:58:44.794Z,89.84
2018-05-29T02:01:49.766Z,88.25
2018-05-29T02:04:53.849Z,86.31
2018-05-29T02:07:57.166Z,86.09
2018-05-29T02:11:00.493Z,86.22
2018-05-29T02:14:03.806Z,86.07
2018-05-29T02:17:07.122Z,85.97
2018-05-29T02:20:10.434Z,85.33
2018-05-29T02:23:13.768Z,85.19
2018-05-29T02:26:17.075Z,85.99
2018-05-29T02:29:20.393Z,84.42
2018-05-29T02:32:23.714Z,83.07
2018-05-29T02:35:27.031Z,82.72
2018-05-29T02:38:30.346Z,83.58
2018-05-29T02:41:33.684Z,84.51
2018-05-29T02:44:36.993Z,85.44
2018-05-29T02:47:40.478Z,86.06
2018-05-29T02:50:43.785Z,86.88
2018-05-29T02:53:47.106Z,86.87
2018-05-29T02:56:50.413Z,86.42
2018-05-29T02:59:53.746Z,86.28
2018-05-29T03:02:57.079Z,86.21
2018-05-29T03:06:00.422Z,86.32
2018-05-29T03:09:04.501Z,86.39
2018-05-29T03:12:07.820Z,85.73
2018-05-29T03:15:11.142Z,85.69
2018-05-29T03:18:14.450Z,85.51
2018-05-29T03:21:17.765Z,85.95
2018-05-29T03:24:21.110Z,86.03
2018-05-29T03:27:24.418Z,86.36
2018-05-29T03:30:27.739Z,86.51
2018-05-29T03:33:31.054Z,86.74
2018-05-29T03:36:34.375Z,86.01
2018-05-29T03:39:37.702Z,85.83
2018-05-29T03:42:41.781Z,85.81
2018-05-29T03:45:45.114Z,85.37
2018-05-29T03:48:49.193Z,85.54
2018-05-29T03:51:52.519Z,85.42
2018-05-29T03:54:56.622Z,85.56
2018-05-29T03:57:59.937Z,85.82
2018-05-29T04:01:04.030Z,85.95
2018-05-29T04:04:08.108Z,85.36
2018-05-29T04:07:11.430Z,84.24
2018-05-29T04:10:14.730Z,83.53
2018-05-29T04:13:19.020Z,83.69
2018-05-29T04:16:22.333Z,83.65
2018-05-29T04:19:25.658Z,82.88
2018-05-29T04:22:28.979Z,82.61
2018-05-29T04:25:32.317Z,82.71
2018-05-29T04:28:35.626Z,83.24
2018-05-29T04:31:38.958Z,82.74
2018-05-29T04:34:43.031Z,82.51
2018-05-29T04:37:46.357Z,82.31
2018-05-29T04:40:49.665Z,82.37
2018-05-29T04:43:53.752Z,82.27
2018-05-29T04:46:57.068Z,82.87
2018-05-29T04:50:01.153Z,84.14
2018-05-29T04:53:04.469Z,84.65
2018-05-29T04:56:07.785Z,85.16
2018-05-29T04:59:11.880Z,85.63
2018-05-29T05:02:15.212Z,85.83
2018-05-29T05:05:18.529Z,85.91
2018-05-29T05:08:21.833Z,86.25
2018-05-29T05:11:25.149Z,86.50
2018-05-29T05:14:28.470Z,85.93
2018-05-29T05:17:31.779Z,85.84
2018-05-29T05:20:35.869Z,85.44
2018-05-29T05:23:39.177Z,85.16
2018-05-29T05:26:42.505Z,84.75
2018-05-29T05:29:45.818Z,84.80
2018-05-29T05:32:49.129Z,84.51
2018-05-29T05:35:52.429Z,84.78
2018-05-29T05:38:55.767Z,85.15
2018-05-29T05:41:59.068Z,85.35
2018-05-29T05:45:03.149Z,85.83
2018-05-29T05:48:06.511Z,86.21
2018-05-29T05:51:10.563Z,86.14
2018-05-29T05:54:13.885Z,85.92
2018-05-29T05:57:17.957Z,85.90
2018-05-29T06:00:21.277Z,86.04
2018-05-29T06:03:24.604Z,85.55
2018-05-29T06:06:27.913Z,85.64
2018-05-29T06:09:31.234Z,85.84
2018-05-29T06:12:34.550Z,85.37
2018-05-29T06:15:37.867Z,85.41
2018-05-29T06:18:41.205Z,85.80
2018-05-29T06:21:44.518Z,85.85
2018-05-29T06:24:47.845Z,85.50
2018-05-29T06:27:51.163Z,84.36
2018-05-29T06:30:55.244Z,84.88
2018-05-29T06:33:58.569Z,85.22
2018-05-29T06:37:01.915Z,85.97
2018-05-29T06:40:05.230Z,86.11
2018-05-29T06:43:08.549Z,86.55
2018-05-29T06:46:11.856Z,87.19
2018-05-29T06:49:15.182Z,87.52
2018-05-29T06:52:18.496Z,87.94
2018-05-29T06:55:21.813Z,88.13
2018-05-29T06:58:25.117Z,88.50
2018-05-29T07:01:28.438Z,87.51
2018-05-29T07:04:31.751Z,87.63
2018-05-29T07:07:35.833Z,87.78
2018-05-29T07:10:39.142Z,87.12
2018-05-29T07:13:42.459Z,84.42
2018-05-29T07:16:46.558Z,81.67
2018-05-29T07:19:49.895Z,82.08
2018-05-29T07:22:53.228Z,80.00
2018-05-29T07:25:56.533Z,79.92
2018-05-29T07:28:59.850Z,77.76
2018-05-29T07:32:03.149Z,78.58
2018-05-29T07:35:07.226Z,77.81
2018-05-29T07:38:10.530Z,77.51
2018-05-29T07:41:13.865Z,77.04
2018-05-29T07:44:17.937Z,76.91
2018-05-29T07:47:21.244Z,76.52
2018-05-29T07:50:24.573Z,74.79
2018-05-29T07:53:28.660Z,74.92
2018-05-29T07:56:32.757Z,73.83
2018-05-29T07:59:36.075Z,73.50
2018-05-29T08:02:39.382Z,74.46
2018-05-29T08:05:43.458Z,72.98
2018-05-29T08:08:46.768Z,72.36
2018-05-29T08:11:50.077Z,73.50
2018-05-29T08:14:53.386Z,72.33
2018-05-29T08:17:56.702Z,70.58
2018-05-29T08:21:00.773Z,72.00
2018-05-29T08:24:04.093Z,70.21
2018-05-29T08:27:07.392Z,69.88
2018-05-29T08:30:11.473Z,68.95
2018-05-29T08:33:14.779Z,67.75
2018-05-29T08:36:18.106Z,67.48
2018-05-29T08:39:22.231Z,67.53
2018-05-29T08:42:25.505Z,66.47
2018-05-29T08:45:28.805Z,67.76
2018-05-29T08:48:32.113Z,64.42
2018-05-29T08:51:36.189Z,67.31
2018-05-29T08:54:39.502Z,65.93
2018-05-29T08:57:42.827Z,66.99
2018-05-29T09:00:46.135Z,66.08
2018-05-29T09:03:49.548Z,64.99
2018-05-29T09:06:52.814Z,65.74
2018-05-29T09:09:56.913Z,63.33
2018-05-29T09:13:00.226Z,60.42
2018-05-29T09:16:04.301Z,60.23
2018-05-29T09:19:07.605Z,62.14
2018-05-29T09:22:10.913Z,63.09
2018-05-29T09:25:14.209Z,63.30
2018-05-29T09:28:17.525Z,60.48
2018-05-29T09:31:21.708Z,62.82
2018-05-29T09:34:25.021Z,62.56
2018-05-29T09:37:29.137Z,62.50
2018-05-29T09:40:32.441Z,64.32
2018-05-29T09:43:36.533Z,63.62
2018-05-29T09:46:39.841Z,62.97
2018-05-29T09:49:43.170Z,62.65
2018-05-29T09:52:46.479Z,63.41
2018-05-29T09:55:49.801Z,63.97
2018-05-29T09:58:53.096Z,64.26
2018-05-29T10:01:56.410Z,62.59
2018-05-29T10:04:59.730Z,64.23
2018-05-29T10:08:03.806Z,63.91
2018-05-29T10:11:07.130Z,61.64
2018-05-29T10:14:10.436Z,61.97
2018-05-29T10:17:14.517Z,62.16
2018-05-29T10:20:17.828Z,61.06
2018-05-29T10:23:21.149Z,61.32
2018-05-29T10:26:24.458Z,62.26
2018-05-29T10:29:27.785Z,61.90
2018-05-29T10:32:31.278Z,59.76
2018-05-29T10:35:34.590Z,59.75
2018-05-29T10:38:37.909Z,60.75
2018-05-29T10:41:41.217Z,60.31
2018-05-29T10:44:44.534Z,59.71
2018-05-29T10:47:47.861Z,60.89
2018-05-29T10:50:51.170Z,60.90
2018-05-29T10:53:54.689Z,62.52
2018-05-29T10:56:58.012Z,61.09
2018-05-29T11:00:02.109Z,60.88
2018-05-29T11:03:05.425Z,59.79
2018-05-29T11:06:09.517Z,60.59
2018-05-29T11:09:12.830Z,59.96
2018-05-29T11:12:16.158Z,61.22
2018-05-29T11:15:19.469Z,60.09
2018-05-29T11:18:22.797Z,59.65
2018-05-29T11:21:26.100Z,58.79
2018-05-29T11:24:29.425Z,58.76
2018-05-29T11:27:33.513Z,59.42
2018-05-29T11:30:36.829Z,58.52
2018-05-29T11:33:40.903Z,57.62
2018-05-29T11:36:44.228Z,59.15
2018-05-29T11:39:47.555Z,59.66
2018-05-29T11:42:50.878Z,59.74
2018-05-29T11:45:54.204Z,60.83
2018-05-29T11:48:57.521Z,60.16
2018-05-29T11:52:00.846Z,59.96
2018-05-29T11:55:04.161Z,62.01
2018-05-29T11:58:07.480Z,60.34
2018-05-29T12:01:10.795Z,59.28
2018-05-29T12:04:14.113Z,57.05
2018-05-29T12:07:17.534Z,56.54
2018-05-29T12:10:20.863Z,57.52
2018-05-29T12:13:24.186Z,57.76
2018-05-29T12:16:27.507Z,56.92
2018-05-29T12:19:31.590Z,56.92
2018-05-29T12:22:34.906Z,56.42
2018-05-29T12:25:38.229Z,56.92
2018-05-29T12:28:41.538Z,55.58
2018-05-29T12:31:44.859Z,55.52
2018-05-29T12:34:48.174Z,56.67
2018-05-29T12:37:51.489Z,57.86
2018-05-29T12:40:54.818Z,56.05
2018-05-29T12:43:58.146Z,55.75
2018-05-29T12:47:01.453Z,55.52
2018-05-29T12:50:04.932Z,56.39
2018-05-29T12:53:08.241Z,56.71
2018-05-29T12:56:11.566Z,58.27
2018-05-29T12:59:14.886Z,56.17
2018-05-29T13:02:18.970Z,55.45
2018-05-29T13:05:22.292Z,55.55
2018-05-29T13:08:25.621Z,55.72
2018-05-29T13:11:28.930Z,55.14
2018-05-29T13:14:32.258Z,55.15
2018-05-29T13:17:35.570Z,54.61
2018-05-29T13:20:39.654Z,55.45
2018-05-29T13:23:42.958Z,56.37
2018-05-29T13:26:46.287Z,54.21
2018-05-29T13:29:50.358Z,55.94
2018-05-29T13:32:53.672Z,54.32
2018-05-29T13:35:56.978Z,53.49
2018-05-29T13:39:00.300Z,53.28
2018-05-29T13:42:04.365Z,52.16
2018-05-29T13:45:07.685Z,52.94
2018-05-29T13:48:11.787Z,51.14
2018-05-29T13:51:15.090Z,52.38
2018-05-29T13:54:18.410Z,52.92
2018-05-29T13:57:22.485Z,52.94
2018-05-29T14:00:25.790Z,52.47
2018-05-29T14:03:29.113Z,52.48
2018-05-29T14:06:33.186Z,51.66
2018-05-29T14:09:36.510Z,52.18
2018-05-29T14:12:39.814Z,50.49
2018-05-29T14:15:43.134Z,50.19
2018-05-29T14:18:46.487Z,50.91
2018-05-29T14:21:49.774Z,51.22
2018-05-29T14:24:53.081Z,50.49
2018-05-29T14:27:56.390Z,50.03
2018-05-29T14:30:59.710Z,51.83
2018-05-29T14:34:03.017Z,49.82
2018-05-29T14:37:06.330Z,51.07
2018-05-29T14:40:09.637Z,49.18
2018-05-29T14:43:13.126Z,49.00
2018-05-29T14:46:16.447Z,49.01
2018-05-29T14:49:19.785Z,46.80
2018-05-29T14:52:23.911Z,46.06
2018-05-29T14:55:27.205Z,46.56
2018-05-29T14:58:31.281Z,47.25
2018-05-29T15:01:34.741Z,45.48
2018-05-29T15:04:38.045Z,45.18
2018-05-29T15:07:41.369Z,45.23
2018-05-29T15:10:44.684Z,43.53
2018-05-29T15:13:48.021Z,43.65
2018-05-29T15:16:51.354Z,43.49
2018-05-29T15:19:54.675Z,42.97
2018-05-29T15:22:58.010Z,42.48
2018-05-29T15:26:01.365Z,42.67
2018-05-29T15:29:04.655Z,42.53
2018-05-29T15:32:07.969Z,42.92
2018-05-29T15:35:11.287Z,43.13
2018-05-29T15:38:14.593Z,43.27
2018-05-29T15:41:17.937Z,42.21
2018-05-29T15:44:21.258Z,42.16
2018-05-29T15:47:25.337Z,42.54
2018-05-29T15:50:28.742Z,42.46
2018-05-29T15:53:32.058Z,42.34
2018-05-29T15:56:35.378Z,42.37
2018-05-29T15:59:38.681Z,42.61
2018-05-29T16:02:41.990Z,43.16
2018-05-29T16:05:45.293Z,42.13
2018-05-29T16:08:48.609Z,42.63
2018-05-29T16:11:51.918Z,43.70
2018-05-29T16:14:55.237Z,44.11
2018-05-29T16:17:58.554Z,44.89
2018-05-29T16:21:02.651Z,45.45
2018-05-29T16:24:06.919Z,47.18
2018-05-29T16:27:13.614Z,47.80
2018-05-29T16:30:16.933Z,46.94
2018-05-29T16:33:20.241Z,48.67
2018-05-29T16:36:23.633Z,49.84
2018-05-29T16:39:26.974Z,50.09
2018-05-29T16:42:30.282Z,49.86
2018-05-29T16:45:33.590Z,49.97
2018-05-29T16:48:36.906Z,51.17
2018-05-29T16:51:40.217Z,50.72
2018-05-29T16:54:43.533Z,50.85
2018-05-29T16:57:46.846Z,51.52
2018-05-29T17:00:50.186Z,51.26
2018-05-29T17:03:53.489Z,50.79
2018-05-29T17:06:56.829Z,50.71
2018-05-29T17:10:00.142Z,51.34
2018-05-29T17:13:03.453Z,50.62
2018-05-29T17:16:06.775Z,51.55
2018-05-29T17:19:10.734Z,51.17
2018-05-29T17:22:14.058Z,51.31
2018-05-29T17:25:17.394Z,51.95
2018-05-29T17:28:20.714Z,51.74
2018-05-29T17:31:24.022Z,52.33
2018-05-29T17:34:27.348Z,51.96
2018-05-29T17:37:30.648Z,52.04
2018-05-29T17:40:33.957Z,52.72
2018-05-29T17:43:37.265Z,52.10
2018-05-29T17:46:40.578Z,52.20
2018-05-29T17:49:44.661Z,52.34
2018-05-29T17:52:47.997Z,52.81
2018-05-29T17:55:52.110Z,52.33
2018-05-29T17:58:56.215Z,52.61
2018-05-29T18:01:59.529Z,52.65
2018-05-29T18:05:02.842Z,52.36
2018-05-29T18:08:06.159Z,52.97
2018-05-29T18:11:09.545Z,53.01
2018-05-29T18:14:12.862Z,52.87
2018-05-29T18:17:16.160Z,53.11
2018-05-29T18:20:19.646Z,53.00
2018-05-29T18:23:22.949Z,53.05
2018-05-29T18:26:26.283Z,53.34
2018-05-29T18:29:29.595Z,53.02
2018-05-29T18:32:33.674Z,52.97
2018-05-29T18:35:36.982Z,53.12
2018-05-29T18:38:40.318Z,53.38
2018-05-29T18:41:43.621Z,54.11
2018-05-29T18:44:47.007Z,52.79
2018-05-29T18:47:51.114Z,53.54
2018-05-29T18:50:54.414Z,53.77
2018-05-29T18:53:58.501Z,53.78
2018-05-29T18:57:01.828Z,53.37
2018-05-29T19:00:05.137Z,53.73
2018-05-29T19:03:08.454Z,54.24
2018-05-29T19:06:11.754Z,54.49
2018-05-29T19:09:15.071Z,54.27
2018-05-29T19:12:18.379Z,54.51
2018-05-29T19:15:21.708Z,54.72
2018-05-29T19:18:25.787Z,54.56
2018-05-29T19:21:29.110Z,55.01
2018-05-29T19:24:34.192Z,55.64
2018-05-29T19:27:38.012Z,55.38
2018-05-29T19:30:41.327Z,55.64
2018-05-29T19:33:44.645Z,55.70
2018-05-29T19:36:48.717Z,56.09
2018-05-29T19:39:52.041Z,56.23
2018-05-29T19:42:55.350Z,56.17
2018-05-29T19:45:58.690Z,56.01
2018-05-29T19:49:02.004Z,56.96
2018-05-29T19:52:05.318Z,56.68
2018-05-29T19:55:08.620Z,56.78
2018-05-29T19:58:11.934Z,57.17
2018-05-29T20:01:16.053Z,57.17
2018-05-29T20:04:19.349Z,57.56
2018-05-29T20:07:23.423Z,57.61
2018-05-29T20:10:26.773Z,57.64
2018-05-29T20:13:30.841Z,57.94
2018-05-29T20:16:34.154Z,57.98
2018-05-29T20:19:37.478Z,57.86
2018-05-29T20:22:41.550Z,58.26
2018-05-29T20:25:44.870Z,58.66
2018-05-29T20:28:48.178Z,58.95
2018-05-29T20:31:52.274Z,59.25
2018-05-29T20:34:55.616Z,59.32
2018-05-29T20:37:58.918Z,59.77
2018-05-29T20:41:02.261Z,59.81
2018-05-29T20:44:05.565Z,60.26
2018-05-29T20:47:08.888Z,59.96
2018-05-29T20:50:12.198Z,60.68
2018-05-29T20:53:15.537Z,60.77
2018-05-29T20:56:18.849Z,60.95
2018-05-29T20:59:22.161Z,61.16
2018-05-29T21:02:25.470Z,61.37
2018-05-29T21:05:28.794Z,61.57
2018-05-29T21:08:32.105Z,61.76
2018-05-29T21:11:35.435Z,62.46
2018-05-29T21:14:38.745Z,62.29
2018-05-29T21:17:42.093Z,62.48
2018-05-29T21:20:45.402Z,62.95
2018-05-29T21:23:48.713Z,62.73
2018-05-29T21:26:52.021Z,63.18
2018-05-29T21:29:56.130Z,62.95
2018-05-29T21:32:59.462Z,63.23
2018-05-29T21:36:02.778Z,63.55
2018-05-29T21:39:06.806Z,63.44
2018-05-29T21:42:10.118Z,63.46
2018-05-29T21:45:13.422Z,63.62
2018-05-29T21:48:16.733Z,63.58
2018-05-29T21:51:20.030Z,64.10
2018-05-29T21:54:23.342Z,63.77
2018-05-29T21:57:26.650Z,64.49
2018-05-29T22:00:29.970Z,64.26
2018-05-29T22:03:33.282Z,64.15
2018-05-29T22:06:36.597Z,64.70
2018-05-29T22:09:39.949Z,64.49
2018-05-29T22:12:43.253Z,64.43
2018-05-29T22:15:46.577Z,64.32
2018-05-29T22:18:49.876Z,63.82
2018-05-29T22:21:53.293Z,64.15
2018-05-29T22:24:56.613Z,63.65
2018-05-29T22:27:59.923Z,63.82
2018-05-29T22:31:03.258Z,63.66
2018-05-29T22:34:06.561Z,63.66
2018-05-29T22:37:09.882Z,63.60
2018-05-29T22:40:13.206Z,63.67
2018-05-29T22:43:16.525Z,63.60
2018-05-29T22:46:19.838Z,63.88
2018-05-29T22:49:23.158Z,63.95
2018-05-29T22:52:26.457Z,63.87
2018-05-29T22:55:29.777Z,64.37
2018-05-29T22:58:33.840Z,64.35
2018-05-29T23:01:37.166Z,64.68
2018-05-29T23:04:40.473Z,64.94
2018-05-29T23:07:44.562Z,65.34
2018-05-29T23:10:47.878Z,65.34
2018-05-29T23:13:51.182Z,65.58
2018-05-29T23:16:55.270Z,65.83
2018-05-29T23:19:58.576Z,66.35
2018-05-29T23:23:01.900Z,66.58
2018-05-29T23:26:05.968Z,66.89
2018-05-29T23:29:09.285Z,66.79
2018-05-29T23:32:12.593Z,66.70
2018-05-29T23:35:16.722Z,66.81
2018-05-29T23:38:20.078Z,67.25
2018-05-29T23:41:23.449Z,67.58
2018-05-29T23:44:26.813Z,67.69
2018-05-29T23:47:30.190Z,67.62
2018-05-29T23:50:34.346Z,67.72
2018-05-29T23:53:37.710Z,67.77
2018-05-29T23:56:41.853Z,68.18
2018-05-29T23:59:45.233Z,68.36
